sensor_id;sensor_type;location;lat;lon;timestamp;P1;durP1;ratioP1;P2;durP2;ratioP2
81306;SDS011;70775;50.846;3.224;2023-12-04T00:00:38;27.52;;;9.85;;
81306;SDS011;70775;50.846;3.224;2023-12-04T00:03:04;26.27;;;9.05;;
81306;SDS011;70775;50.846;3.224;2023-12-04T00:05:29;21.65;;;8.10;;
81306;SDS011;70775;50.846;3.224;2023-12-04T00:07:55;22.25;;;8.68;;
81306;SDS011;70775;50.846;3.224;2023-12-04T00:15:57;20.52;;;8.82;;
81306;SDS011;70775;50.846;3.224;2023-12-04T00:18:22;24.98;;;9.30;;
81306;SDS011;70775;50.846;3.224;2023-12-04T00:20:49;24.38;;;8.13;;
81306;SDS011;70775;50.846;3.224;2023-12-04T00:23:14;25.52;;;8.90;;
81306;SDS011;70775;50.846;3.224;2023-12-04T00:25:40;25.17;;;8.70;;
81306;SDS011;70775;50.846;3.224;2023-12-04T00:28:06;28.33;;;8.93;;
81306;SDS011;70775;50.846;3.224;2023-12-04T00:30:31;22.38;;;7.18;;
81306;SDS011;70775;50.846;3.224;2023-12-04T00:33:12;23.17;;;8.95;;
81306;SDS011;70775;50.846;3.224;2023-12-04T00:35:44;25.55;;;10.63;;
81306;SDS011;70775;50.846;3.224;2023-12-04T00:38:10;23.50;;;9.38;;
81306;SDS011;70775;50.846;3.224;2023-12-04T00:40:36;23.45;;;8.88;;
81306;SDS011;70775;50.846;3.224;2023-12-04T00:43:02;22.02;;;8.73;;
81306;SDS011;70775;50.846;3.224;2023-12-04T00:45:27;24.02;;;9.18;;
81306;SDS011;70775;50.846;3.224;2023-12-04T00:51:08;17.00;;;7.93;;
81306;SDS011;70775;50.846;3.224;2023-12-04T00:53:34;22.90;;;8.65;;
81306;SDS011;70775;50.846;3.224;2023-12-04T00:55:59;25.80;;;9.90;;
81306;SDS011;70775;50.846;3.224;2023-12-04T00:58:31;20.90;;;8.95;;
81306;SDS011;70775;50.846;3.224;2023-12-04T01:00:57;24.75;;;9.80;;
81306;SDS011;70775;50.846;3.224;2023-12-04T01:03:22;19.70;;;9.35;;
81306;SDS011;70775;50.846;3.224;2023-12-04T01:05:48;16.70;;;6.20;;
81306;SDS011;70775;50.846;3.224;2023-12-04T01:08:14;19.85;;;8.20;;
81306;SDS011;70775;50.846;3.224;2023-12-04T01:10:39;29.27;;;10.88;;
81306;SDS011;70775;50.846;3.224;2023-12-04T01:13:05;16.35;;;7.93;;
81306;SDS011;70775;50.846;3.224;2023-12-04T01:15:40;21.33;;;9.20;;
81306;SDS011;70775;50.846;3.224;2023-12-04T01:18:06;20.25;;;7.57;;
81306;SDS011;70775;50.846;3.224;2023-12-04T01:20:32;20.23;;;7.53;;
81306;SDS011;70775;50.846;3.224;2023-12-04T01:22:58;20.13;;;7.65;;
81306;SDS011;70775;50.846;3.224;2023-12-04T01:25:24;25.33;;;8.57;;
81306;SDS011;70775;50.846;3.224;2023-12-04T01:27:57;20.63;;;7.72;;
81306;SDS011;70775;50.846;3.224;2023-12-04T01:30:27;20.63;;;8.18;;
81306;SDS011;70775;50.846;3.224;2023-12-04T01:32:53;24.10;;;8.68;;
81306;SDS011;70775;50.846;3.224;2023-12-04T01:35:18;18.25;;;7.20;;
81306;SDS011;70775;50.846;3.224;2023-12-04T01:37:44;20.83;;;7.75;;
81306;SDS011;70775;50.846;3.224;2023-12-04T01:40:10;22.88;;;8.82;;
81306;SDS011;70775;50.846;3.224;2023-12-04T01:42:42;18.63;;;7.80;;
81306;SDS011;70775;50.846;3.224;2023-12-04T01:45:08;21.27;;;7.95;;
81306;SDS011;70775;50.846;3.224;2023-12-04T01:47:34;20.48;;;8.32;;
81306;SDS011;70775;50.846;3.224;2023-12-04T01:52:58;19.75;;;8.60;;
81306;SDS011;70775;50.846;3.224;2023-12-04T01:55:23;19.58;;;7.22;;
81306;SDS011;70775;50.846;3.224;2023-12-04T01:57:49;16.30;;;6.32;;
81306;SDS011;70775;50.846;3.224;2023-12-04T02:00:17;17.00;;;6.65;;
81306;SDS011;70775;50.846;3.224;2023-12-04T02:02:45;20.67;;;8.07;;
81306;SDS011;70775;50.846;3.224;2023-12-04T02:05:11;17.27;;;6.13;;
81306;SDS011;70775;50.846;3.224;2023-12-04T02:07:40;14.32;;;6.25;;
81306;SDS011;70775;50.846;3.224;2023-12-04T02:22:16;20.90;;;6.63;;
81306;SDS011;70775;50.846;3.224;2023-12-04T02:24:45;18.80;;;7.82;;
81306;SDS011;70775;50.846;3.224;2023-12-04T02:29:51;18.02;;;6.90;;
81306;SDS011;70775;50.846;3.224;2023-12-04T02:35:27;19.27;;;7.00;;
81306;SDS011;70775;50.846;3.224;2023-12-04T02:37:56;16.38;;;7.47;;
81306;SDS011;70775;50.846;3.224;2023-12-04T02:40:23;15.00;;;7.18;;
81306;SDS011;70775;50.846;3.224;2023-12-04T02:45:59;17.10;;;6.53;;
81306;SDS011;70775;50.846;3.224;2023-12-04T02:48:25;16.75;;;7.28;;
81306;SDS011;70775;50.846;3.224;2023-12-04T02:50:50;17.30;;;7.03;;
81306;SDS011;70775;50.846;3.224;2023-12-04T02:53:16;16.20;;;5.88;;
81306;SDS011;70775;50.846;3.224;2023-12-04T02:55:43;16.17;;;7.45;;
81306;SDS011;70775;50.846;3.224;2023-12-04T02:58:15;19.50;;;7.15;;
81306;SDS011;70775;50.846;3.224;2023-12-04T03:00:40;17.80;;;6.93;;
81306;SDS011;70775;50.846;3.224;2023-12-04T03:03:06;13.85;;;6.35;;
81306;SDS011;70775;50.846;3.224;2023-12-04T03:08:21;17.05;;;6.22;;
81306;SDS011;70775;50.846;3.224;2023-12-04T03:10:46;18.38;;;6.75;;
81306;SDS011;70775;50.846;3.224;2023-12-04T03:13:12;14.88;;;6.32;;
81306;SDS011;70775;50.846;3.224;2023-12-04T03:15:38;14.25;;;5.43;;
81306;SDS011;70775;50.846;3.224;2023-12-04T03:18:03;11.90;;;4.47;;
81306;SDS011;70775;50.846;3.224;2023-12-04T03:20:46;14.68;;;6.00;;
81306;SDS011;70775;50.846;3.224;2023-12-04T03:31:24;16.17;;;6.65;;
81306;SDS011;70775;50.846;3.224;2023-12-04T03:33:50;19.80;;;6.90;;
81306;SDS011;70775;50.846;3.224;2023-12-04T03:36:32;19.13;;;6.15;;
81306;SDS011;70775;50.846;3.224;2023-12-04T03:38:57;13.88;;;6.15;;
81306;SDS011;70775;50.846;3.224;2023-12-04T03:41:23;14.27;;;6.50;;
81306;SDS011;70775;50.846;3.224;2023-12-04T03:43:49;12.00;;;6.60;;
81306;SDS011;70775;50.846;3.224;2023-12-04T03:46:14;15.27;;;6.43;;
81306;SDS011;70775;50.846;3.224;2023-12-04T03:48:40;14.27;;;6.22;;
81306;SDS011;70775;50.846;3.224;2023-12-04T03:51:05;13.75;;;5.63;;
81306;SDS011;70775;50.846;3.224;2023-12-04T03:56:34;16.00;;;5.18;;
81306;SDS011;70775;50.846;3.224;2023-12-04T03:59:01;12.88;;;5.30;;
81306;SDS011;70775;50.846;3.224;2023-12-04T04:01:41;18.05;;;6.53;;
81306;SDS011;70775;50.846;3.224;2023-12-04T04:04:23;16.45;;;6.25;;
81306;SDS011;70775;50.846;3.224;2023-12-04T04:06:49;12.55;;;5.95;;
81306;SDS011;70775;50.846;3.224;2023-12-04T04:09:15;13.80;;;5.43;;
81306;SDS011;70775;50.846;3.224;2023-12-04T04:11:56;16.10;;;5.88;;
81306;SDS011;70775;50.846;3.224;2023-12-04T04:17:07;15.52;;;6.28;;
81306;SDS011;70775;50.846;3.224;2023-12-04T04:22:30;14.05;;;5.13;;
81306;SDS011;70775;50.846;3.224;2023-12-04T04:25:09;14.57;;;5.57;;
81306;SDS011;70775;50.846;3.224;2023-12-04T04:27:47;13.32;;;5.93;;
81306;SDS011;70775;50.846;3.224;2023-12-04T04:30:25;15.05;;;6.05;;
81306;SDS011;70775;50.846;3.224;2023-12-04T04:32:50;14.95;;;5.93;;
81306;SDS011;70775;50.846;3.224;2023-12-04T04:35:16;14.10;;;6.13;;
81306;SDS011;70775;50.846;3.224;2023-12-04T04:37:53;16.08;;;6.72;;
81306;SDS011;70775;50.846;3.224;2023-12-04T04:40:18;13.40;;;6.00;;
81306;SDS011;70775;50.846;3.224;2023-12-04T04:42:46;14.45;;;5.97;;
81306;SDS011;70775;50.846;3.224;2023-12-04T04:45:16;14.45;;;6.15;;
81306;SDS011;70775;50.846;3.224;2023-12-04T04:47:41;15.80;;;5.40;;
81306;SDS011;70775;50.846;3.224;2023-12-04T04:50:07;13.27;;;6.22;;
81306;SDS011;70775;50.846;3.224;2023-12-04T04:52:39;12.52;;;4.78;;
81306;SDS011;70775;50.846;3.224;2023-12-04T04:55:05;16.05;;;6.70;;
81306;SDS011;70775;50.846;3.224;2023-12-04T04:57:30;14.30;;;6.47;;
81306;SDS011;70775;50.846;3.224;2023-12-04T04:59:56;14.98;;;6.70;;
81306;SDS011;70775;50.846;3.224;2023-12-04T05:02:26;15.60;;;6.00;;
81306;SDS011;70775;50.846;3.224;2023-12-04T05:04:51;19.23;;;6.85;;
81306;SDS011;70775;50.846;3.224;2023-12-04T05:07:19;13.15;;;4.53;;
81306;SDS011;70775;50.846;3.224;2023-12-04T05:09:47;17.38;;;5.88;;
81306;SDS011;70775;50.846;3.224;2023-12-04T05:12:13;15.15;;;5.38;;
81306;SDS011;70775;50.846;3.224;2023-12-04T05:14:50;11.02;;;4.78;;
81306;SDS011;70775;50.846;3.224;2023-12-04T05:17:15;15.18;;;6.13;;
81306;SDS011;70775;50.846;3.224;2023-12-04T05:19:41;15.60;;;5.35;;
81306;SDS011;70775;50.846;3.224;2023-12-04T05:22:08;12.55;;;5.05;;
81306;SDS011;70775;50.846;3.224;2023-12-04T05:24:33;14.73;;;5.68;;
81306;SDS011;70775;50.846;3.224;2023-12-04T05:27:08;13.73;;;5.88;;
81306;SDS011;70775;50.846;3.224;2023-12-04T05:29:50;13.27;;;5.03;;
81306;SDS011;70775;50.846;3.224;2023-12-04T05:32:25;15.63;;;6.22;;
81306;SDS011;70775;50.846;3.224;2023-12-04T05:34:51;12.85;;;6.10;;
81306;SDS011;70775;50.846;3.224;2023-12-04T05:37:17;13.32;;;5.95;;
81306;SDS011;70775;50.846;3.224;2023-12-04T05:45:41;15.32;;;5.97;;
81306;SDS011;70775;50.846;3.224;2023-12-04T05:48:06;13.50;;;5.88;;
81306;SDS011;70775;50.846;3.224;2023-12-04T05:50:34;13.55;;;6.43;;
81306;SDS011;70775;50.846;3.224;2023-12-04T05:55:32;12.30;;;5.70;;
81306;SDS011;70775;50.846;3.224;2023-12-04T05:57:58;16.83;;;5.75;;
81306;SDS011;70775;50.846;3.224;2023-12-04T06:00:23;13.75;;;6.25;;
81306;SDS011;70775;50.846;3.224;2023-12-04T06:02:51;15.10;;;6.20;;
81306;SDS011;70775;50.846;3.224;2023-12-04T06:10:45;11.73;;;5.10;;
81306;SDS011;70775;50.846;3.224;2023-12-04T06:13:11;14.23;;;5.75;;
81306;SDS011;70775;50.846;3.224;2023-12-04T06:15:36;14.55;;;6.50;;
81306;SDS011;70775;50.846;3.224;2023-12-04T06:18:17;16.60;;;6.00;;
81306;SDS011;70775;50.846;3.224;2023-12-04T06:20:45;15.40;;;5.50;;
81306;SDS011;70775;50.846;3.224;2023-12-04T06:23:26;16.02;;;5.75;;
81306;SDS011;70775;50.846;3.224;2023-12-04T06:25:52;13.45;;;5.40;;
81306;SDS011;70775;50.846;3.224;2023-12-04T06:28:17;15.93;;;7.22;;
81306;SDS011;70775;50.846;3.224;2023-12-04T06:30:43;13.68;;;6.05;;
81306;SDS011;70775;50.846;3.224;2023-12-04T06:33:09;16.42;;;5.93;;
81306;SDS011;70775;50.846;3.224;2023-12-04T06:35:35;16.85;;;6.97;;
81306;SDS011;70775;50.846;3.224;2023-12-04T06:38:16;14.23;;;6.97;;
81306;SDS011;70775;50.846;3.224;2023-12-04T06:43:31;14.13;;;6.65;;
81306;SDS011;70775;50.846;3.224;2023-12-04T06:45:58;17.23;;;7.10;;
81306;SDS011;70775;50.846;3.224;2023-12-04T06:48:24;17.20;;;6.00;;
81306;SDS011;70775;50.846;3.224;2023-12-04T06:50:50;17.85;;;6.63;;
81306;SDS011;70775;50.846;3.224;2023-12-04T06:53:15;13.48;;;4.93;;
81306;SDS011;70775;50.846;3.224;2023-12-04T07:00:57;16.35;;;6.63;;
81306;SDS011;70775;50.846;3.224;2023-12-04T07:03:23;21.27;;;7.95;;
81306;SDS011;70775;50.846;3.224;2023-12-04T07:05:49;11.50;;;5.35;;
81306;SDS011;70775;50.846;3.224;2023-12-04T07:08:17;16.75;;;6.65;;
81306;SDS011;70775;50.846;3.224;2023-12-04T07:10:49;16.65;;;6.65;;
81306;SDS011;70775;50.846;3.224;2023-12-04T07:15:44;19.13;;;7.72;;
81306;SDS011;70775;50.846;3.224;2023-12-04T07:18:26;22.40;;;8.98;;
81306;SDS011;70775;50.846;3.224;2023-12-04T07:20:52;18.73;;;7.55;;
81306;SDS011;70775;50.846;3.224;2023-12-04T07:23:17;21.20;;;7.65;;
81306;SDS011;70775;50.846;3.224;2023-12-04T07:25:43;23.73;;;8.48;;
81306;SDS011;70775;50.846;3.224;2023-12-04T07:28:09;26.08;;;11.43;;
81306;SDS011;70775;50.846;3.224;2023-12-04T07:30:36;32.15;;;11.65;;
81306;SDS011;70775;50.846;3.224;2023-12-04T07:33:01;21.80;;;9.48;;
81306;SDS011;70775;50.846;3.224;2023-12-04T07:41:54;18.17;;;6.55;;
81306;SDS011;70775;50.846;3.224;2023-12-04T07:44:36;37.53;;;13.63;;
81306;SDS011;70775;50.846;3.224;2023-12-04T07:49:31;21.10;;;9.02;;
81306;SDS011;70775;50.846;3.224;2023-12-04T07:51:57;19.63;;;10.18;;
81306;SDS011;70775;50.846;3.224;2023-12-04T07:54:23;18.85;;;8.00;;
81306;SDS011;70775;50.846;3.224;2023-12-04T07:56:51;20.10;;;9.00;;
81306;SDS011;70775;50.846;3.224;2023-12-04T07:59:18;21.90;;;8.65;;
81306;SDS011;70775;50.846;3.224;2023-12-04T08:01:43;20.35;;;8.10;;
81306;SDS011;70775;50.846;3.224;2023-12-04T08:04:09;23.08;;;9.73;;
81306;SDS011;70775;50.846;3.224;2023-12-04T08:06:35;15.27;;;7.32;;
81306;SDS011;70775;50.846;3.224;2023-12-04T08:09:01;19.67;;;6.95;;
81306;SDS011;70775;50.846;3.224;2023-12-04T08:11:27;16.50;;;8.43;;
81306;SDS011;70775;50.846;3.224;2023-12-04T08:13:53;15.55;;;6.55;;
81306;SDS011;70775;50.846;3.224;2023-12-04T08:16:18;20.73;;;7.70;;
81306;SDS011;70775;50.846;3.224;2023-12-04T08:18:45;11.00;;;4.93;;
81306;SDS011;70775;50.846;3.224;2023-12-04T08:21:11;19.52;;;6.70;;
81306;SDS011;70775;50.846;3.224;2023-12-04T08:23:38;23.38;;;9.32;;
81306;SDS011;70775;50.846;3.224;2023-12-04T08:26:03;15.93;;;6.93;;
81306;SDS011;70775;50.846;3.224;2023-12-04T08:28:29;18.27;;;6.88;;
81306;SDS011;70775;50.846;3.224;2023-12-04T08:30:58;15.00;;;7.32;;
81306;SDS011;70775;50.846;3.224;2023-12-04T08:33:23;13.02;;;6.65;;
81306;SDS011;70775;50.846;3.224;2023-12-04T08:35:49;14.63;;;6.88;;
81306;SDS011;70775;50.846;3.224;2023-12-04T08:40:51;14.48;;;7.13;;
81306;SDS011;70775;50.846;3.224;2023-12-04T08:43:17;31.17;;;11.63;;
81306;SDS011;70775;50.846;3.224;2023-12-04T08:45:43;51.45;;;20.35;;
81306;SDS011;70775;50.846;3.224;2023-12-04T08:48:10;13.88;;;5.50;;
81306;SDS011;70775;50.846;3.224;2023-12-04T08:50:35;21.13;;;8.25;;
81306;SDS011;70775;50.846;3.224;2023-12-04T08:53:03;15.73;;;7.72;;
81306;SDS011;70775;50.846;3.224;2023-12-04T08:55:31;14.23;;;6.90;;
81306;SDS011;70775;50.846;3.224;2023-12-04T08:57:57;19.15;;;7.88;;
81306;SDS011;70775;50.846;3.224;2023-12-04T09:00:23;15.75;;;5.65;;
81306;SDS011;70775;50.846;3.224;2023-12-04T09:02:48;18.90;;;8.18;;
81306;SDS011;70775;50.846;3.224;2023-12-04T09:05:14;20.83;;;7.95;;
81306;SDS011;70775;50.846;3.224;2023-12-04T09:07:42;16.67;;;7.40;;
81306;SDS011;70775;50.846;3.224;2023-12-04T09:10:07;17.35;;;6.85;;
81306;SDS011;70775;50.846;3.224;2023-12-04T09:12:34;17.05;;;6.85;;
81306;SDS011;70775;50.846;3.224;2023-12-04T09:15:01;18.83;;;7.85;;
81306;SDS011;70775;50.846;3.224;2023-12-04T09:17:27;17.73;;;7.50;;
81306;SDS011;70775;50.846;3.224;2023-12-04T09:19:53;16.67;;;7.70;;
81306;SDS011;70775;50.846;3.224;2023-12-04T09:22:19;14.43;;;6.63;;
81306;SDS011;70775;50.846;3.224;2023-12-04T09:24:45;17.55;;;7.90;;
81306;SDS011;70775;50.846;3.224;2023-12-04T09:27:10;16.65;;;8.10;;
81306;SDS011;70775;50.846;3.224;2023-12-04T09:29:36;21.98;;;8.55;;
81306;SDS011;70775;50.846;3.224;2023-12-04T09:32:02;30.52;;;11.98;;
81306;SDS011;70775;50.846;3.224;2023-12-04T09:34:28;21.13;;;8.55;;
81306;SDS011;70775;50.846;3.224;2023-12-04T09:36:54;21.80;;;8.10;;
81306;SDS011;70775;50.846;3.224;2023-12-04T09:39:19;18.55;;;7.65;;
81306;SDS011;70775;50.846;3.224;2023-12-04T09:41:46;14.40;;;6.60;;
81306;SDS011;70775;50.846;3.224;2023-12-04T09:44:12;19.73;;;8.23;;
81306;SDS011;70775;50.846;3.224;2023-12-04T09:46:38;17.67;;;7.65;;
81306;SDS011;70775;50.846;3.224;2023-12-04T09:49:04;14.98;;;7.10;;
81306;SDS011;70775;50.846;3.224;2023-12-04T09:51:30;18.05;;;8.25;;
81306;SDS011;70775;50.846;3.224;2023-12-04T09:54:01;15.63;;;7.47;;
81306;SDS011;70775;50.846;3.224;2023-12-04T09:56:31;17.33;;;7.78;;
81306;SDS011;70775;50.846;3.224;2023-12-04T09:58:59;9.15;;;4.03;;
81306;SDS011;70775;50.846;3.224;2023-12-04T10:01:26;18.27;;;7.32;;
81306;SDS011;70775;50.846;3.224;2023-12-04T10:03:53;14.30;;;6.10;;
81306;SDS011;70775;50.846;3.224;2023-12-04T10:06:23;15.82;;;7.50;;
81306;SDS011;70775;50.846;3.224;2023-12-04T10:08:54;14.20;;;6.45;;
81306;SDS011;70775;50.846;3.224;2023-12-04T10:11:23;14.43;;;6.88;;
81306;SDS011;70775;50.846;3.224;2023-12-04T10:13:50;16.88;;;7.35;;
81306;SDS011;70775;50.846;3.224;2023-12-04T10:19:15;16.50;;;7.43;;
81306;SDS011;70775;50.846;3.224;2023-12-04T10:21:52;14.20;;;7.07;;
81306;SDS011;70775;50.846;3.224;2023-12-04T10:24:29;19.95;;;8.75;;
81306;SDS011;70775;50.846;3.224;2023-12-04T10:26:55;16.63;;;7.20;;
81306;SDS011;70775;50.846;3.224;2023-12-04T10:29:21;15.38;;;6.85;;
81306;SDS011;70775;50.846;3.224;2023-12-04T10:31:47;19.08;;;7.88;;
81306;SDS011;70775;50.846;3.224;2023-12-04T10:34:15;15.65;;;8.00;;
81306;SDS011;70775;50.846;3.224;2023-12-04T10:36:41;17.52;;;7.13;;
81306;SDS011;70775;50.846;3.224;2023-12-04T10:39:07;17.25;;;7.32;;
81306;SDS011;70775;50.846;3.224;2023-12-04T10:41:33;11.70;;;5.97;;
81306;SDS011;70775;50.846;3.224;2023-12-04T10:43:59;16.02;;;6.22;;
81306;SDS011;70775;50.846;3.224;2023-12-04T10:46:26;24.77;;;12.00;;
81306;SDS011;70775;50.846;3.224;2023-12-04T10:48:52;22.67;;;10.65;;
81306;SDS011;70775;50.846;3.224;2023-12-04T10:51:21;16.83;;;8.90;;
81306;SDS011;70775;50.846;3.224;2023-12-04T10:53:48;22.90;;;9.18;;
81306;SDS011;70775;50.846;3.224;2023-12-04T10:56:17;16.50;;;7.72;;
81306;SDS011;70775;50.846;3.224;2023-12-04T10:58:58;13.80;;;7.28;;
81306;SDS011;70775;50.846;3.224;2023-12-04T11:01:27;19.38;;;7.65;;
81306;SDS011;70775;50.846;3.224;2023-12-04T11:03:53;20.05;;;9.52;;
81306;SDS011;70775;50.846;3.224;2023-12-04T11:06:23;20.92;;;9.73;;
81306;SDS011;70775;50.846;3.224;2023-12-04T11:08:56;15.45;;;6.97;;
81306;SDS011;70775;50.846;3.224;2023-12-04T11:11:27;17.15;;;7.72;;
81306;SDS011;70775;50.846;3.224;2023-12-04T11:13:58;23.70;;;9.85;;
81306;SDS011;70775;50.846;3.224;2023-12-04T11:21:37;17.73;;;7.32;;
81306;SDS011;70775;50.846;3.224;2023-12-04T11:24:05;13.88;;;6.63;;
81306;SDS011;70775;50.846;3.224;2023-12-04T11:26:32;16.77;;;7.57;;
81306;SDS011;70775;50.846;3.224;2023-12-04T11:31:50;13.40;;;6.10;;
81306;SDS011;70775;50.846;3.224;2023-12-04T11:34:15;14.57;;;5.90;;
81306;SDS011;70775;50.846;3.224;2023-12-04T11:36:41;14.43;;;7.07;;
81306;SDS011;70775;50.846;3.224;2023-12-04T11:39:13;13.82;;;6.28;;
81306;SDS011;70775;50.846;3.224;2023-12-04T11:41:40;16.40;;;6.68;;
81306;SDS011;70775;50.846;3.224;2023-12-04T11:44:11;14.90;;;6.38;;
81306;SDS011;70775;50.846;3.224;2023-12-04T11:46:54;13.77;;;7.25;;
81306;SDS011;70775;50.846;3.224;2023-12-04T11:49:30;12.60;;;5.97;;
81306;SDS011;70775;50.846;3.224;2023-12-04T11:52:00;18.73;;;7.63;;
81306;SDS011;70775;50.846;3.224;2023-12-04T11:54:36;11.87;;;5.53;;
81306;SDS011;70775;50.846;3.224;2023-12-04T11:57:21;14.30;;;7.40;;
81306;SDS011;70775;50.846;3.224;2023-12-04T11:59:49;39.83;;;15.23;;
81306;SDS011;70775;50.846;3.224;2023-12-04T12:02:15;18.58;;;8.95;;
81306;SDS011;70775;50.846;3.224;2023-12-04T12:04:43;39.67;;;15.90;;
81306;SDS011;70775;50.846;3.224;2023-12-04T12:07:10;17.48;;;6.80;;
81306;SDS011;70775;50.846;3.224;2023-12-04T12:09:36;12.90;;;6.25;;
81306;SDS011;70775;50.846;3.224;2023-12-04T12:12:03;24.10;;;7.38;;
81306;SDS011;70775;50.846;3.224;2023-12-04T12:14:29;13.25;;;6.05;;
81306;SDS011;70775;50.846;3.224;2023-12-04T12:16:55;15.55;;;6.90;;
81306;SDS011;70775;50.846;3.224;2023-12-04T12:19:22;13.93;;;6.30;;
81306;SDS011;70775;50.846;3.224;2023-12-04T12:21:48;12.93;;;5.25;;
81306;SDS011;70775;50.846;3.224;2023-12-04T12:24:16;15.65;;;6.05;;
81306;SDS011;70775;50.846;3.224;2023-12-04T12:26:43;14.50;;;7.15;;
81306;SDS011;70775;50.846;3.224;2023-12-04T12:29:10;16.02;;;5.53;;
81306;SDS011;70775;50.846;3.224;2023-12-04T12:31:36;14.98;;;6.63;;
81306;SDS011;70775;50.846;3.224;2023-12-04T12:34:02;16.42;;;5.45;;
81306;SDS011;70775;50.846;3.224;2023-12-04T12:36:31;12.93;;;5.90;;
81306;SDS011;70775;50.846;3.224;2023-12-04T12:38:58;14.75;;;5.20;;
81306;SDS011;70775;50.846;3.224;2023-12-04T12:41:25;15.25;;;6.68;;
81306;SDS011;70775;50.846;3.224;2023-12-04T12:43:51;15.35;;;5.70;;
81306;SDS011;70775;50.846;3.224;2023-12-04T12:46:18;18.27;;;6.20;;
81306;SDS011;70775;50.846;3.224;2023-12-04T12:48:44;14.60;;;6.63;;
81306;SDS011;70775;50.846;3.224;2023-12-04T12:51:12;14.95;;;6.25;;
81306;SDS011;70775;50.846;3.224;2023-12-04T12:53:38;14.95;;;6.18;;
81306;SDS011;70775;50.846;3.224;2023-12-04T12:56:04;13.95;;;6.32;;
81306;SDS011;70775;50.846;3.224;2023-12-04T12:58:31;11.10;;;5.03;;
81306;SDS011;70775;50.846;3.224;2023-12-04T13:00:56;10.38;;;5.93;;
81306;SDS011;70775;50.846;3.224;2023-12-04T13:03:22;10.27;;;5.93;;
81306;SDS011;70775;50.846;3.224;2023-12-04T13:05:48;10.98;;;5.57;;
81306;SDS011;70775;50.846;3.224;2023-12-04T13:08:14;14.35;;;6.90;;
81306;SDS011;70775;50.846;3.224;2023-12-04T13:10:42;27.75;;;12.70;;
81306;SDS011;70775;50.846;3.224;2023-12-04T13:13:14;21.17;;;11.43;;
81306;SDS011;70775;50.846;3.224;2023-12-04T13:15:40;14.63;;;7.68;;
81306;SDS011;70775;50.846;3.224;2023-12-04T13:18:06;12.75;;;6.22;;
81306;SDS011;70775;50.846;3.224;2023-12-04T13:20:33;14.63;;;6.32;;
81306;SDS011;70775;50.846;3.224;2023-12-04T13:22:59;17.75;;;7.40;;
81306;SDS011;70775;50.846;3.224;2023-12-04T13:25:25;14.55;;;6.22;;
81306;SDS011;70775;50.846;3.224;2023-12-04T13:27:51;11.90;;;5.72;;
81306;SDS011;70775;50.846;3.224;2023-12-04T13:30:19;14.57;;;6.00;;
81306;SDS011;70775;50.846;3.224;2023-12-04T13:32:45;15.13;;;7.28;;
81306;SDS011;70775;50.846;3.224;2023-12-04T13:35:12;14.07;;;7.63;;
81306;SDS011;70775;50.846;3.224;2023-12-04T13:37:37;12.85;;;5.72;;
81306;SDS011;70775;50.846;3.224;2023-12-04T13:40:04;13.60;;;5.57;;
81306;SDS011;70775;50.846;3.224;2023-12-04T13:42:33;11.23;;;5.57;;
81306;SDS011;70775;50.846;3.224;2023-12-04T13:47:45;15.88;;;6.53;;
81306;SDS011;70775;50.846;3.224;2023-12-04T13:50:11;12.88;;;6.07;;
81306;SDS011;70775;50.846;3.224;2023-12-04T13:52:37;13.38;;;6.97;;
81306;SDS011;70775;50.846;3.224;2023-12-04T13:55:04;12.68;;;8.07;;
81306;SDS011;70775;50.846;3.224;2023-12-04T13:57:40;15.25;;;7.10;;
81306;SDS011;70775;50.846;3.224;2023-12-04T14:02:59;17.52;;;7.88;;
81306;SDS011;70775;50.846;3.224;2023-12-04T14:08:19;15.80;;;7.53;;
81306;SDS011;70775;50.846;3.224;2023-12-04T14:13:48;17.77;;;7.60;;
81306;SDS011;70775;50.846;3.224;2023-12-04T14:16:14;14.20;;;7.28;;
81306;SDS011;70775;50.846;3.224;2023-12-04T14:18:41;16.50;;;7.63;;
81306;SDS011;70775;50.846;3.224;2023-12-04T14:21:07;17.33;;;6.72;;
81306;SDS011;70775;50.846;3.224;2023-12-04T14:26:36;14.38;;;7.53;;
81306;SDS011;70775;50.846;3.224;2023-12-04T14:29:02;19.17;;;8.60;;
81306;SDS011;70775;50.846;3.224;2023-12-04T14:31:28;17.48;;;7.13;;
81306;SDS011;70775;50.846;3.224;2023-12-04T14:33:56;14.40;;;7.53;;
81306;SDS011;70775;50.846;3.224;2023-12-04T14:36:26;14.52;;;7.78;;
81306;SDS011;70775;50.846;3.224;2023-12-04T14:38:53;17.67;;;9.05;;
81306;SDS011;70775;50.846;3.224;2023-12-04T14:41:18;16.27;;;6.75;;
81306;SDS011;70775;50.846;3.224;2023-12-04T14:43:44;16.52;;;7.95;;
81306;SDS011;70775;50.846;3.224;2023-12-04T14:46:26;19.27;;;7.85;;
81306;SDS011;70775;50.846;3.224;2023-12-04T14:48:52;18.45;;;8.13;;
81306;SDS011;70775;50.846;3.224;2023-12-04T14:51:29;14.10;;;7.68;;
81306;SDS011;70775;50.846;3.224;2023-12-04T14:54:08;15.40;;;8.18;;
81306;SDS011;70775;50.846;3.224;2023-12-04T14:56:58;18.58;;;8.15;;
81306;SDS011;70775;50.846;3.224;2023-12-04T14:59:52;18.10;;;8.57;;
81306;SDS011;70775;50.846;3.224;2023-12-04T15:05:43;19.77;;;8.77;;
81306;SDS011;70775;50.846;3.224;2023-12-04T15:08:18;19.52;;;9.60;;
81306;SDS011;70775;50.846;3.224;2023-12-04T15:11:24;19.83;;;9.38;;
81306;SDS011;70775;50.846;3.224;2023-12-04T15:13:49;16.90;;;9.30;;
81306;SDS011;70775;50.846;3.224;2023-12-04T15:16:34;19.00;;;10.23;;
81306;SDS011;70775;50.846;3.224;2023-12-04T15:24:47;21.27;;;10.57;;
81306;SDS011;70775;50.846;3.224;2023-12-04T15:27:12;20.65;;;11.07;;
81306;SDS011;70775;50.846;3.224;2023-12-04T15:29:38;23.98;;;11.32;;
81306;SDS011;70775;50.846;3.224;2023-12-04T15:32:05;20.80;;;11.25;;
81306;SDS011;70775;50.846;3.224;2023-12-04T15:34:31;27.52;;;12.00;;
81306;SDS011;70775;50.846;3.224;2023-12-04T15:36:57;25.08;;;11.93;;
81306;SDS011;70775;50.846;3.224;2023-12-04T15:39:22;22.48;;;11.38;;
81306;SDS011;70775;50.846;3.224;2023-12-04T15:41:48;22.40;;;11.18;;
81306;SDS011;70775;50.846;3.224;2023-12-04T15:44:14;26.13;;;12.63;;
81306;SDS011;70775;50.846;3.224;2023-12-04T15:46:40;32.63;;;12.80;;
81306;SDS011;70775;50.846;3.224;2023-12-04T15:49:14;25.40;;;11.95;;
81306;SDS011;70775;50.846;3.224;2023-12-04T15:51:40;24.95;;;12.85;;
81306;SDS011;70775;50.846;3.224;2023-12-04T15:59:41;25.95;;;12.45;;
81306;SDS011;70775;50.846;3.224;2023-12-04T16:02:06;23.13;;;10.98;;
81306;SDS011;70775;50.846;3.224;2023-12-04T16:04:33;22.58;;;11.60;;
81306;SDS011;70775;50.846;3.224;2023-12-04T16:09:52;25.63;;;12.70;;
81306;SDS011;70775;50.846;3.224;2023-12-04T16:12:18;26.38;;;11.77;;
81306;SDS011;70775;50.846;3.224;2023-12-04T16:14:44;24.55;;;11.93;;
81306;SDS011;70775;50.846;3.224;2023-12-04T16:20:14;25.63;;;12.40;;
81306;SDS011;70775;50.846;3.224;2023-12-04T16:22:49;23.83;;;12.13;;
81306;SDS011;70775;50.846;3.224;2023-12-04T16:25:23;24.75;;;13.05;;
81306;SDS011;70775;50.846;3.224;2023-12-04T16:27:49;26.83;;;13.80;;
81306;SDS011;70775;50.846;3.224;2023-12-04T16:30:16;27.83;;;12.77;;
81306;SDS011;70775;50.846;3.224;2023-12-04T16:32:44;26.10;;;13.02;;
81306;SDS011;70775;50.846;3.224;2023-12-04T16:35:09;25.10;;;12.75;;
81306;SDS011;70775;50.846;3.224;2023-12-04T16:37:35;24.40;;;13.50;;
81306;SDS011;70775;50.846;3.224;2023-12-04T16:40:02;34.03;;;13.65;;
81306;SDS011;70775;50.846;3.224;2023-12-04T16:42:44;25.90;;;14.32;;
81306;SDS011;70775;50.846;3.224;2023-12-04T16:45:09;27.92;;;14.50;;
81306;SDS011;70775;50.846;3.224;2023-12-04T16:47:35;29.95;;;15.63;;
81306;SDS011;70775;50.846;3.224;2023-12-04T16:52:39;29.58;;;14.48;;
81306;SDS011;70775;50.846;3.224;2023-12-04T16:55:05;30.15;;;14.57;;